Time;durP1;ratioP1;P1;durP2;ratioP2;P2;SDS_P1;SDS_P2;PMS_P1;PMS_P2;Temp;Humidity;BMP_temperature;BMP_pressure;BME280_temperature;BME280_humidity;BME280_pressure;Samples;Min_cycle;Max_cycle;Signal;HPM_P1;HPM_P2
2023/12/15 00:00:59;;;;;;;14.90;10.88;;;8.20;99.90;;;;;;5114122;28;20237;-62
2023/12/15 00:03:25;;;;;;;14.30;10.90;;;8.20;99.90;;;;;;5113741;28;20178;-62
2023/12/15 00:05:50;;;;;;;12.75;11.25;;;8.10;99.90;;;;;;5113995;28;20238;-62
2023/12/15 00:08:16;;;;;;;16.52;11.80;;;8.20;99.90;;;;;;5113984;28;20211;-63
2023/12/15 00:10:41;;;;;;;21.15;12.93;;;8.20;99.90;;;;;;5113898;28;20235;-63
2023/12/15 00:13:07;;;;;;;19.50;12.77;;;8.30;99.90;;;;;;5113939;28;20257;-63
2023/12/15 00:15:33;;;;;;;18.40;13.48;;;8.20;99.90;;;;;;5113632;28;20256;-63
2023/12/15 00:17:59;;;;;;;16.70;12.07;;;8.30;99.90;;;;;;5113929;28;20177;-65
2023/12/15 00:20:24;;;;;;;15.93;12.38;;;8.20;99.90;;;;;;5113882;28;20255;-63
2023/12/15 00:22:50;;;;;;;15.43;13.52;;;8.10;99.90;;;;;;5113866;28;20708;-62
2023/12/15 00:25:16;;;;;;;17.80;14.13;;;8.20;99.90;;;;;;5113805;28;20272;-62
2023/12/15 00:27:41;;;;;;;19.80;13.82;;;8.20;99.90;;;;;;5113878;28;20257;-63
2023/12/15 00:30:07;;;;;;;18.45;13.95;;;8.20;99.90;;;;;;5113548;28;20166;-63
2023/12/15 00:32:33;;;;;;;21.88;13.35;;;8.10;99.90;;;;;;5114014;28;20604;-63
2023/12/15 00:34:58;;;;;;;21.05;13.90;;;8.10;99.90;;;;;;5117779;28;20221;-63
2023/12/15 00:37:24;;;;;;;19.48;13.70;;;8.10;99.90;;;;;;5117880;28;20227;-63
2023/12/15 00:39:50;;;;;;;20.33;15.32;;;8.10;99.90;;;;;;5117767;28;20260;-62
2023/12/15 00:42:16;;;;;;;21.08;14.75;;;8.10;99.90;;;;;;5117412;28;20181;-63
2023/12/15 00:44:41;;;;;;;24.05;15.30;;;8.10;99.90;;;;;;5117731;28;20176;-62
2023/12/15 00:47:07;;;;;;;21.35;14.75;;;8.20;99.90;;;;;;5117369;28;20539;-62
2023/12/15 00:49:32;;;;;;;19.60;15.07;;;8.10;99.90;;;;;;5117588;28;20178;-62
2023/12/15 00:51:58;;;;;;;22.13;15.95;;;8.30;99.90;;;;;;5117447;28;20208;-63
2023/12/15 00:54:24;;;;;;;22.73;14.80;;;8.20;99.90;;;;;;5117521;28;20196;-62
2023/12/15 00:56:50;;;;;;;18.23;14.82;;;8.30;99.90;;;;;;5117468;28;20173;-62
2023/12/15 00:59:16;;;;;;;21.23;15.48;;;8.30;99.90;;;;;;5117457;28;20185;-62
2023/12/15 01:01:42;;;;;;;21.95;16.27;;;8.30;99.90;;;;;;5117387;28;20637;-63
2023/12/15 01:04:07;;;;;;;27.35;17.08;;;8.40;99.90;;;;;;5117371;28;20169;-62
2023/12/15 01:06:33;;;;;;;24.23;17.10;;;8.40;99.90;;;;;;5117299;28;20638;-62
2023/12/15 01:08:58;;;;;;;25.02;16.58;;;8.40;99.90;;;;;;5117226;28;20260;-62
2023/12/15 01:11:24;;;;;;;24.58;17.02;;;8.40;99.90;;;;;;5117107;28;20229;-63
2023/12/15 01:13:50;;;;;;;26.75;18.13;;;8.40;99.90;;;;;;5117195;28;20205;-62
2023/12/15 01:16:15;;;;;;;26.05;16.90;;;8.40;99.90;;;;;;5117067;28;20177;-62
2023/12/15 01:18:41;;;;;;;27.83;18.17;;;8.40;99.90;;;;;;5117090;28;20216;-62
2023/12/15 01:21:07;;;;;;;22.58;20.27;;;8.40;99.90;;;;;;5117016;28;20532;-62
2023/12/15 01:23:35;;;;;;;27.15;17.42;;;8.50;99.90;;;;;;5117097;28;20229;-63
2023/12/15 01:26:02;;;;;;;25.92;20.45;;;8.50;99.90;;;;;;5116938;28;20526;-62
2023/12/15 01:28:28;;;;;;;24.88;18.23;;;8.40;99.90;;;;;;5116851;28;20176;-62
2023/12/15 01:30:53;;;;;;;31.23;19.02;;;8.40;99.90;;;;;;5116726;28;20193;-63
2023/12/15 01:33:19;;;;;;;27.73;19.50;;;8.40;99.90;;;;;;5116447;28;20576;-62
2023/12/15 01:35:45;;;;;;;29.42;19.63;;;8.30;99.90;;;;;;5116703;28;20173;-62
2023/12/15 01:38:10;;;;;;;26.13;18.10;;;8.40;99.90;;;;;;5116669;28;20260;-62
2023/12/15 01:40:36;;;;;;;29.42;20.02;;;8.30;99.90;;;;;;5116594;28;20242;-62
2023/12/15 01:43:02;;;;;;;27.40;18.42;;;8.40;99.90;;;;;;5116569;28;20185;-62
2023/12/15 01:45:28;;;;;;;26.73;18.60;;;8.40;99.90;;;;;;5116368;28;20166;-62
2023/12/15 01:47:54;;;;;;;26.60;21.60;;;8.30;99.90;;;;;;5116488;28;20257;-62
2023/12/15 01:50:20;;;;;;;28.67;22.85;;;8.50;99.90;;;;;;5116072;28;20740;-63
2023/12/15 01:52:46;;;;;;;26.83;17.52;;;8.50;99.90;;;;;;5116104;28;20215;-63
2023/12/15 01:55:12;;;;;;;27.17;17.75;;;8.50;99.90;;;;;;5116322;28;20205;-62
2023/12/15 01:57:38;;;;;;;23.52;18.45;;;8.40;99.90;;;;;;5116030;28;20180;-62
2023/12/15 02:00:09;;;;;;;28.27;19.27;;;8.50;99.90;;;;;;5116237;28;20173;-62
2023/12/15 02:02:34;;;;;;;30.10;18.52;;;8.50;99.90;;;;;;5116216;28;20169;-62
2023/12/15 02:05:01;;;;;;;31.27;19.05;;;8.50;99.90;;;;;;5116185;28;20529;-63
2023/12/15 02:07:27;;;;;;;27.63;18.73;;;8.50;99.90;;;;;;5116156;28;20174;-62
2023/12/15 02:09:53;;;;;;;30.38;18.70;;;8.40;99.90;;;;;;5116117;28;20201;-62
2023/12/15 02:12:19;;;;;;;30.27;19.13;;;8.40;99.90;;;;;;5115946;28;20239;-62
2023/12/15 02:14:44;;;;;;;29.52;18.73;;;8.40;99.90;;;;;;5116106;28;20575;-62
2023/12/15 02:17:11;;;;;;;32.85;19.92;;;8.50;99.90;;;;;;5115894;28;20173;-62
2023/12/15 02:19:37;;;;;;;29.20;18.40;;;8.40;99.90;;;;;;5115924;28;20191;-63
2023/12/15 02:22:02;;;;;;;30.73;20.77;;;8.50;99.90;;;;;;5115429;28;20667;-61
2023/12/15 02:24:28;;;;;;;28.48;18.92;;;8.50;99.90;;;;;;5115924;28;20648;-62
2023/12/15 02:26:54;;;;;;;35.25;20.15;;;8.50;99.90;;;;;;5115720;28;20177;-60
2023/12/15 02:29:20;;;;;;;35.25;19.70;;;8.50;99.90;;;;;;5115639;28;20181;-63
2023/12/15 02:31:45;;;;;;;33.08;20.88;;;8.40;99.90;;;;;;5115201;28;20216;-63
2023/12/15 02:34:11;;;;;;;31.52;19.30;;;8.50;99.90;;;;;;5115609;28;20182;-63
2023/12/15 02:36:37;;;;;;;37.10;20.92;;;8.60;99.90;;;;;;5115541;28;20249;-63
2023/12/15 02:39:02;;;;;;;32.55;20.58;;;8.60;99.90;;;;;;5115162;28;20177;-60
2023/12/15 02:41:30;;;;;;;31.90;20.20;;;8.50;99.90;;;;;;5115468;28;20180;-63
2023/12/15 02:43:55;;;;;;;33.13;19.65;;;8.50;99.90;;;;;;5115388;28;20269;-60
2023/12/15 02:46:21;;;;;;;36.75;21.95;;;8.50;99.90;;;;;;5115048;28;20244;-63
2023/12/15 02:48:47;;;;;;;37.13;21.08;;;8.50;99.90;;;;;;5115292;28;20169;-63
2023/12/15 02:51:28;;;;;;;34.20;20.67;;;8.50;99.90;;;;;;5115176;28;20576;-62
2023/12/15 02:53:54;;;;;;;33.00;21.70;;;8.50;99.90;;;;;;5115271;28;20172;-62
2023/12/15 02:56:19;;;;;;;32.00;20.75;;;8.50;99.90;;;;;;5114523;28;20173;-62
2023/12/15 02:58:45;;;;;;;29.75;20.15;;;8.50;99.90;;;;;;5114824;28;20632;-62
2023/12/15 03:01:10;;;;;;;39.40;22.05;;;8.50;99.90;;;;;;5115041;28;20210;-62
2023/12/15 03:03:36;;;;;;;31.88;19.48;;;8.50;99.90;;;;;;5114973;28;20182;-62
2023/12/15 03:06:02;;;;;;;34.38;20.88;;;8.40;99.90;;;;;;5114666;28;20180;-62
2023/12/15 03:08:28;;;;;;;28.90;21.15;;;8.50;99.90;;;;;;5114952;28;20173;-62
2023/12/15 03:10:57;;;;;;;30.25;20.55;;;8.60;99.90;;;;;;5114786;28;20193;-62
2023/12/15 03:13:26;;;;;;;34.95;20.02;;;8.60;99.90;;;;;;5114737;28;20242;-63
2023/12/15 03:15:52;;;;;;;34.13;21.13;;;8.50;99.90;;;;;;5115081;28;20584;-62
2023/12/15 03:18:18;;;;;;;31.20;21.52;;;8.50;99.90;;;;;;5114487;28;20585;-62
2023/12/15 03:20:46;;;;;;;31.38;20.45;;;8.50;99.90;;;;;;5115007;28;20181;-62
2023/12/15 03:23:12;;;;;;;30.00;19.75;;;8.50;99.90;;;;;;5114656;28;20685;-62
2023/12/15 03:25:37;;;;;;;33.80;22.17;;;8.50;99.90;;;;;;5114600;28;20173;-62
2023/12/15 03:28:03;;;;;;;30.02;24.85;;;8.50;99.90;;;;;;5114526;28;20180;-62
2023/12/15 03:30:28;;;;;;;38.63;25.23;;;8.50;99.90;;;;;;5114515;28;20175;-62
2023/12/15 03:32:54;;;;;;;37.30;21.77;;;8.50;99.90;;;;;;5114135;28;20522;-62
2023/12/15 03:35:20;;;;;;;34.05;21.08;;;8.50;99.90;;;;;;5114140;28;20184;-62
2023/12/15 03:37:45;;;;;;;34.25;20.67;;;8.50;99.90;;;;;;5114376;28;20177;-62
2023/12/15 03:40:11;;;;;;;37.67;22.58;;;8.50;99.90;;;;;;5114346;28;20180;-62
2023/12/15 03:42:38;;;;;;;36.97;24.15;;;8.50;99.90;;;;;;5114316;28;20638;-62
2023/12/15 03:45:04;;;;;;;35.72;22.63;;;8.50;99.90;;;;;;5114355;28;20173;-63
2023/12/15 03:47:30;;;;;;;36.20;22.73;;;8.60;99.90;;;;;;5114228;28;20169;-62
2023/12/15 03:49:56;;;;;;;35.97;24.17;;;8.60;99.90;;;;;;5113983;28;20180;-62
2023/12/15 03:52:21;;;;;;;36.33;24.23;;;8.50;99.90;;;;;;5114020;28;20203;-62
2023/12/15 03:54:47;;;;;;;42.90;23.52;;;8.60;99.90;;;;;;5114161;28;20182;-62
2023/12/15 03:57:13;;;;;;;39.17;23.52;;;8.50;99.90;;;;;;5114402;28;20178;-62
2023/12/15 03:59:39;;;;;;;39.95;23.85;;;8.60;99.90;;;;;;5114092;28;20641;-62
2023/12/15 04:02:05;;;;;;;34.42;22.80;;;8.60;99.90;;;;;;5114087;28;20170;-62
2023/12/15 04:04:32;;;;;;;37.38;23.83;;;8.60;99.90;;;;;;5114101;28;20165;-62
2023/12/15 04:06:58;;;;;;;41.45;23.90;;;8.70;99.90;;;;;;5113752;28;20180;-62
2023/12/15 04:09:24;;;;;;;35.42;24.15;;;8.60;99.90;;;;;;5113393;28;20173;-62
2023/12/15 04:11:49;;;;;;;38.30;29.05;;;8.60;99.90;;;;;;5113723;28;20204;-62
2023/12/15 04:14:15;;;;;;;40.25;24.88;;;8.50;99.90;;;;;;5113879;28;20177;-62
2023/12/15 04:16:41;;;;;;;38.28;24.60;;;8.50;99.90;;;;;;5113915;28;20169;-62
2023/12/15 04:19:07;;;;;;;36.70;24.65;;;8.50;99.90;;;;;;5113842;28;20522;-62
2023/12/15 04:21:32;;;;;;;39.10;24.63;;;8.50;99.90;;;;;;5113738;28;20610;-63
2023/12/15 04:23:58;;;;;;;45.35;25.60;;;8.50;99.90;;;;;;5113982;28;20290;-62
2023/12/15 04:26:24;;;;;;;38.83;24.25;;;8.60;99.90;;;;;;5113821;28;20302;-62
2023/12/15 04:28:49;;;;;;;39.22;26.20;;;8.50;99.90;;;;;;5113824;28;20161;-64
2023/12/15 04:31:15;;;;;;;35.47;24.27;;;8.50;99.90;;;;;;5113731;28;20556;-62
2023/12/15 04:33:41;;;;;;;45.05;25.90;;;8.50;99.90;;;;;;5113687;28;20181;-62
2023/12/15 04:36:08;;;;;;;40.40;25.10;;;8.50;99.90;;;;;;5113695;28;20176;-62
2023/12/15 04:38:34;;;;;;;35.97;22.77;;;8.50;99.90;;;;;;5113636;28;20173;-62
2023/12/15 04:41:00;;;;;;;38.85;23.80;;;8.50;99.90;;;;;;5113729;28;20173;-62
2023/12/15 04:43:25;;;;;;;35.15;24.20;;;8.50;99.90;;;;;;5113692;28;20180;-62
2023/12/15 04:45:51;;;;;;;38.40;23.92;;;8.40;99.90;;;;;;5113964;28;20176;-62
2023/12/15 04:48:16;;;;;;;38.60;24.65;;;8.50;99.90;;;;;;5113618;28;20170;-62
2023/12/15 04:50:42;;;;;;;37.35;23.60;;;8.50;99.90;;;;;;5113570;28;20232;-62
2023/12/15 04:53:08;;;;;;;33.70;22.23;;;8.50;99.90;;;;;;5113560;28;20645;-63
2023/12/15 04:55:33;;;;;;;37.13;23.58;;;8.50;99.90;;;;;;5113591;28;20542;-62
2023/12/15 04:58:00;;;;;;;38.67;23.35;;;8.40;99.90;;;;;;5113227;28;20174;-63
2023/12/15 05:00:26;;;;;;;33.95;22.73;;;8.50;99.90;;;;;;5113477;28;20185;-62
2023/12/15 05:02:52;;;;;;;35.65;23.45;;;8.50;99.90;;;;;;5113444;28;20165;-62
2023/12/15 05:05:18;;;;;;;34.38;23.60;;;8.50;99.90;;;;;;5113541;28;20286;-62
2023/12/15 05:07:44;;;;;;;33.85;22.92;;;8.40;99.90;;;;;;5113439;28;20166;-63
2023/12/15 05:10:10;;;;;;;36.00;24.98;;;8.50;99.90;;;;;;5113460;28;20178;-63
2023/12/15 05:12:36;;;;;;;38.60;24.45;;;8.50;99.90;;;;;;5113377;28;20193;-62
2023/12/15 05:15:03;;;;;;;39.53;24.15;;;8.40;99.90;;;;;;5113406;28;20177;-62
2023/12/15 05:17:29;;;;;;;37.20;24.27;;;8.40;99.90;;;;;;5113381;28;20176;-64
2023/12/15 05:19:54;;;;;;;40.72;24.27;;;8.40;99.90;;;;;;5115328;28;20518;-62
2023/12/15 05:22:20;;;;;;;39.28;25.05;;;8.30;99.90;;;;;;5116933;28;20221;-62
2023/12/15 05:24:46;;;;;;;36.42;24.13;;;8.30;99.90;;;;;;5116992;28;20178;-62
2023/12/15 05:27:11;;;;;;;36.67;23.83;;;8.30;99.90;;;;;;5116923;28;20257;-62
2023/12/15 05:29:44;;;;;;;38.88;24.08;;;8.30;99.90;;;;;;5116866;28;20610;-62
2023/12/15 05:32:10;;;;;;;33.25;22.63;;;8.30;99.90;;;;;;5116813;28;20558;-62
2023/12/15 05:34:36;;;;;;;41.05;24.13;;;8.30;99.90;;;;;;5116781;28;20169;-63
2023/12/15 05:37:01;;;;;;;40.22;24.73;;;8.30;99.90;;;;;;5116703;28;20173;-62
2023/12/15 05:39:27;;;;;;;32.95;23.45;;;8.30;99.90;;;;;;5116680;28;20526;-61
2023/12/15 05:41:53;;;;;;;39.40;24.13;;;8.40;99.90;;;;;;5116452;28;20229;-62
2023/12/15 05:44:18;;;;;;;35.53;22.70;;;8.30;99.90;;;;;;5116568;28;20184;-63
2023/12/15 05:46:44;;;;;;;32.95;22.38;;;8.40;99.90;;;;;;5116509;28;20176;-63
2023/12/15 05:49:12;;;;;;;33.05;23.38;;;8.40;99.90;;;;;;5116233;28;20173;-62
2023/12/15 05:51:38;;;;;;;35.47;22.30;;;8.50;99.90;;;;;;5116420;28;20243;-60
2023/12/15 05:54:04;;;;;;;34.65;21.77;;;8.40;99.90;;;;;;5116347;28;20182;-62
2023/12/15 05:56:30;;;;;;;31.92;21.15;;;8.40;99.90;;;;;;5116071;28;20169;-60
2023/12/15 05:58:56;;;;;;;36.22;21.88;;;8.40;99.90;;;;;;5116314;28;20640;-62
2023/12/15 06:01:22;;;;;;;36.08;21.02;;;8.50;99.90;;;;;;5116279;28;20265;-60
2023/12/15 06:03:48;;;;;;;34.25;21.48;;;8.50;99.90;;;;;;5116146;28;20204;-61
2023/12/15 06:06:14;;;;;;;30.88;21.25;;;8.40;99.90;;;;;;5115751;28;20252;-60
2023/12/15 06:08:40;;;;;;;31.42;20.38;;;8.40;99.90;;;;;;5116379;28;20177;-61
2023/12/15 06:11:05;;;;;;;31.60;21.65;;;8.40;99.90;;;;;;5116063;28;20586;-62
2023/12/15 06:13:31;;;;;;;30.73;21.30;;;8.50;99.90;;;;;;5116151;28;20181;-62
2023/12/15 06:15:57;;;;;;;31.48;20.02;;;8.40;99.90;;;;;;5115984;28;20181;-60
2023/12/15 06:18:22;;;;;;;27.23;18.65;;;8.50;99.90;;;;;;5115395;28;20573;-60
2023/12/15 06:20:48;;;;;;;33.28;19.48;;;8.50;99.90;;;;;;5115406;27;20174;-60
2023/12/15 06:23:14;;;;;;;28.75;19.23;;;8.40;99.90;;;;;;5114981;28;20729;-60
2023/12/15 06:25:40;;;;;;;29.90;19.70;;;8.50;99.90;;;;;;5115567;28;20173;-60
2023/12/15 06:28:09;;;;;;;30.30;19.73;;;8.40;99.90;;;;;;5112282;28;20310;-60
2023/12/15 06:30:36;;;;;;;31.50;18.98;;;8.40;99.90;;;;;;5114602;28;20177;-60
2023/12/15 06:33:03;;;;;;;31.63;18.50;;;8.40;99.90;;;;;;5115581;28;20189;-61
2023/12/15 06:35:28;;;;;;;28.27;17.00;;;8.40;99.90;;;;;;5115642;28;20242;-60
2023/12/15 06:37:54;;;;;;;21.52;13.52;;;8.50;99.90;;;;;;5115542;28;20173;-59
2023/12/15 06:40:19;;;;;;;29.70;19.08;;;8.50;99.90;;;;;;5115209;28;20178;-60
2023/12/15 06:42:45;;;;;;;27.10;18.63;;;8.50;99.90;;;;;;5115163;28;20177;-60
2023/12/15 06:45:11;;;;;;;26.75;18.23;;;8.50;99.90;;;;;;5115429;28;20197;-60
2023/12/15 06:47:38;;;;;;;28.27;18.15;;;8.50;99.90;;;;;;5115195;28;20201;-60
2023/12/15 06:50:07;;;;;;;27.50;17.17;;;8.50;99.90;;;;;;5115284;28;20173;-59
2023/12/15 06:52:35;;;;;;;26.55;17.13;;;8.50;99.90;;;;;;5115066;28;20609;-62
2023/12/15 06:55:01;;;;;;;25.40;16.65;;;8.50;99.90;;;;;;5115000;28;20229;-61
2023/12/15 06:57:27;;;;;;;23.05;15.90;;;8.50;99.90;;;;;;5115365;28;20176;-61
2023/12/15 06:59:53;;;;;;;22.05;15.10;;;8.40;99.90;;;;;;5115093;28;20165;-61
2023/12/15 07:02:18;;;;;;;24.08;14.70;;;8.40;99.90;;;;;;5114912;28;20181;-61
2023/12/15 07:04:44;;;;;;;21.67;14.63;;;8.40;99.90;;;;;;5114102;28;20169;-62
2023/12/15 07:07:11;;;;;;;23.25;15.25;;;8.40;99.90;;;;;;5114944;28;20180;-62
2023/12/15 07:09:36;;;;;;;25.88;14.98;;;8.40;99.90;;;;;;5114934;28;20165;-62
2023/12/15 07:12:03;;;;;;;23.70;15.52;;;8.40;99.90;;;;;;5114786;28;20216;-61
2023/12/15 07:14:29;;;;;;;22.65;14.63;;;8.40;99.90;;;;;;5114809;28;20694;-61
2023/12/15 07:16:55;;;;;;;21.80;14.63;;;8.30;99.90;;;;;;5114797;28;20173;-59
2023/12/15 07:19:20;;;;;;;22.48;16.88;;;8.40;99.90;;;;;;5114977;28;20626;-61
2023/12/15 07:21:46;;;;;;;27.92;15.25;;;8.40;99.90;;;;;;5114476;28;20221;-62
2023/12/15 07:24:12;;;;;;;22.10;14.93;;;8.30;99.90;;;;;;5114866;27;20193;-61
2023/12/15 07:26:38;;;;;;;27.25;14.32;;;8.30;99.90;;;;;;5114572;28;20203;-62
2023/12/15 07:29:05;;;;;;;19.73;13.63;;;8.40;99.90;;;;;;5114288;28;20173;-59
2023/12/15 07:31:31;;;;;;;20.50;12.98;;;8.40;99.90;;;;;;5113977;28;20197;-60
2023/12/15 07:33:56;;;;;;;21.45;14.07;;;8.40;99.90;;;;;;5114307;28;20173;-59
2023/12/15 07:36:22;;;;;;;19.35;12.02;;;8.40;99.90;;;;;;5114063;28;20260;-61
2023/12/15 07:38:48;;;;;;;25.60;13.07;;;8.50;99.90;;;;;;5114432;28;20169;-61
2023/12/15 07:41:14;;;;;;;21.17;11.93;;;8.50;99.90;;;;;;5113958;28;20165;-59
2023/12/15 07:43:40;;;;;;;27.55;13.05;;;8.40;99.90;;;;;;5114154;28;20641;-59
2023/12/15 07:46:14;;;;;;;20.38;12.95;;;8.40;99.90;;;;;;5114368;28;20180;-59
2023/12/15 07:48:40;;;;;;;19.25;12.55;;;8.40;99.90;;;;;;5114307;28;20209;-60
2023/12/15 07:51:14;;;;;;;18.63;12.77;;;8.30;99.90;;;;;;5114186;28;20200;-60
2023/12/15 07:53:39;;;;;;;22.75;11.73;;;8.30;99.90;;;;;;5114282;28;20642;-59
2023/12/15 07:56:06;;;;;;;16.00;11.05;;;8.30;99.90;;;;;;5113931;28;20169;-59
2023/12/15 07:58:31;;;;;;;23.42;12.05;;;8.30;99.90;;;;;;5114135;28;20593;-59
2023/12/15 08:00:57;;;;;;;17.45;9.90;;;8.40;99.90;;;;;;5114223;28;20260;-61
2023/12/15 08:03:23;;;;;;;14.75;9.90;;;8.40;99.90;;;;;;5114075;28;20298;-59
2023/12/15 08:05:49;;;;;;;16.17;11.23;;;8.40;99.90;;;;;;5113733;28;20530;-59
2023/12/15 08:08:14;;;;;;;21.75;10.15;;;8.40;99.90;;;;;;5113972;28;20169;-59
2023/12/15 08:10:40;;;;;;;16.90;10.88;;;8.40;99.90;;;;;;5113888;28;20232;-59
2023/12/15 08:13:09;;;;;;;14.48;10.55;;;8.50;99.90;;;;;;5113971;28;20192;-59
2023/12/15 08:15:35;;;;;;;17.60;9.77;;;8.50;99.90;;;;;;5113935;28;20166;-60
2023/12/15 08:18:01;;;;;;;15.40;10.15;;;8.50;99.90;;;;;;5113963;28;20177;-59
2023/12/15 08:20:26;;;;;;;18.77;9.38;;;8.50;99.90;;;;;;5114196;28;20181;-59
2023/12/15 08:22:52;;;;;;;14.95;7.88;;;8.60;99.90;;;;;;5113930;28;20754;-59
2023/12/15 08:25:18;;;;;;;17.15;8.43;;;8.50;99.90;;;;;;5114016;28;20177;-59
2023/12/15 08:27:43;;;;;;;14.77;7.90;;;8.60;99.90;;;;;;5113528;28;20173;-59
2023/12/15 08:30:09;;;;;;;16.63;8.23;;;8.60;99.90;;;;;;5113827;28;20177;-59
2023/12/15 08:32:35;;;;;;;13.90;7.93;;;8.60;99.90;;;;;;5113662;28;20676;-59
2023/12/15 08:35:01;;;;;;;19.77;8.20;;;8.60;99.90;;;;;;5113743;28;20204;-61
2023/12/15 08:37:28;;;;;;;15.32;7.97;;;8.70;99.90;;;;;;5113550;28;20558;-59
2023/12/15 08:39:53;;;;;;;11.90;8.13;;;8.60;99.90;;;;;;5113739;28;20184;-59
2023/12/15 08:42:19;;;;;;;16.08;7.93;;;8.60;99.90;;;;;;5113817;28;20173;-59
2023/12/15 08:44:44;;;;;;;15.13;7.85;;;8.60;99.90;;;;;;5113866;28;20626;-59
2023/12/15 08:47:10;;;;;;;16.10;7.28;;;8.60;99.90;;;;;;5113675;28;20235;-59
2023/12/15 08:49:36;;;;;;;14.80;8.32;;;8.70;99.90;;;;;;5113710;28;20517;-59
2023/12/15 08:52:01;;;;;;;14.05;7.80;;;8.70;99.90;;;;;;5113599;28;20693;-59
2023/12/15 08:54:28;;;;;;;12.60;7.30;;;8.70;99.90;;;;;;5114983;28;20549;-59
2023/12/15 08:56:53;;;;;;;14.50;7.32;;;8.70;99.90;;;;;;5117598;28;20180;-59
2023/12/15 08:59:19;;;;;;;15.90;7.95;;;8.70;99.90;;;;;;5116210;28;20177;-59
2023/12/15 09:01:45;;;;;;;14.98;6.72;;;8.70;99.90;;;;;;5117418;27;20272;-59
2023/12/15 09:04:10;;;;;;;15.77;6.95;;;8.80;99.90;;;;;;5117243;28;20184;-59
2023/12/15 09:06:36;;;;;;;15.18;7.18;;;8.80;99.90;;;;;;5117352;28;20229;-63
2023/12/15 09:09:02;;;;;;;13.27;6.85;;;8.90;99.90;;;;;;5117207;28;20177;-59
2023/12/15 09:11:28;;;;;;;12.45;6.68;;;8.90;99.90;;;;;;5117201;28;20198;-60
2023/12/15 09:13:54;;;;;;;12.05;7.32;;;8.90;99.90;;;;;;5117355;28;20514;-59
2023/12/15 09:16:19;;;;;;;14.57;7.05;;;8.90;99.90;;;;;;5117467;28;20634;-59
2023/12/15 09:18:45;;;;;;;10.43;5.95;;;9.00;99.90;;;;;;5116812;28;20169;-59
2023/12/15 09:21:11;;;;;;;12.13;6.03;;;9.00;99.90;;;;;;5116878;28;20177;-59
2023/12/15 09:23:37;;;;;;;13.10;7.45;;;9.10;99.90;;;;;;5117057;28;20691;-59
2023/12/15 09:26:03;;;;;;;14.52;6.10;;;9.10;99.90;;;;;;5116981;28;20256;-60
2023/12/15 09:28:28;;;;;;;11.65;5.82;;;9.20;99.90;;;;;;5116887;28;20311;-60
2023/12/15 09:30:54;;;;;;;13.57;6.15;;;9.20;99.90;;;;;;5116851;28;20669;-59
2023/12/15 09:33:20;;;;;;;15.68;6.35;;;9.20;99.90;;;;;;5116818;28;20177;-59
2023/12/15 09:35:46;;;;;;;12.65;5.70;;;9.30;99.90;;;;;;5116793;28;20613;-59
2023/12/15 09:38:12;;;;;;;14.52;5.75;;;9.30;99.90;;;;;;5116779;28;20587;-59
2023/12/15 09:40:38;;;;;;;11.95;6.25;;;9.30;99.90;;;;;;5116894;28;20525;-59
2023/12/15 09:43:04;;;;;;;13.13;6.15;;;9.30;99.90;;;;;;5116655;28;20173;-59
2023/12/15 09:45:30;;;;;;;13.32;6.40;;;9.40;99.90;;;;;;5116569;28;20187;-59
2023/12/15 09:47:58;;;;;;;12.45;5.30;;;9.40;99.90;;;;;;5116486;28;20177;-59
2023/12/15 09:50:30;;;;;;;11.45;6.30;;;9.40;99.90;;;;;;5116448;28;20180;-61
2023/12/15 09:52:56;;;;;;;11.18;6.30;;;9.50;99.90;;;;;;5116515;28;20173;-59
2023/12/15 09:55:23;;;;;;;9.82;5.93;;;9.50;99.90;;;;;;5116420;28;20633;-59
2023/12/15 09:57:49;;;;;;;15.10;6.45;;;9.50;99.90;;;;;;5116350;28;20169;-59
2023/12/15 10:00:15;;;;;;;12.75;5.78;;;9.60;99.90;;;;;;5116328;28;20168;-59
2023/12/15 10:02:40;;;;;;;14.48;6.05;;;9.60;99.90;;;;;;5116345;28;20177;-59
2023/12/15 10:05:07;;;;;;;14.73;6.00;;;9.50;99.90;;;;;;5116191;28;20173;-60
2023/12/15 10:07:33;;;;;;;11.82;5.70;;;9.50;99.90;;;;;;5115962;28;20229;-59
2023/12/15 10:09:59;;;;;;;14.20;5.47;;;9.50;99.90;;;;;;5116121;28;20173;-60
2023/12/15 10:12:25;;;;;;;12.18;5.05;;;9.50;99.90;;;;;;5115966;28;20684;-59
2023/12/15 10:14:51;;;;;;;12.40;5.82;;;9.50;99.90;;;;;;5115757;28;20618;-60
2023/12/15 10:17:17;;;;;;;12.52;5.30;;;9.50;99.90;;;;;;5115725;28;20207;-59
2023/12/15 10:19:43;;;;;;;13.07;6.38;;;9.50;99.90;;;;;;5115905;28;20641;-59
2023/12/15 10:22:08;;;;;;;14.02;5.53;;;9.60;99.90;;;;;;5115636;28;20242;-59
2023/12/15 10:24:35;;;;;;;11.48;4.93;;;9.60;99.90;;;;;;5116690;28;20570;-59
2023/12/15 10:27:03;;;;;;;16.88;5.85;;;9.50;99.90;;;;;;5115805;28;20173;-60
2023/12/15 10:29:29;;;;;;;11.30;5.35;;;9.50;99.90;;;;;;5115752;28;20225;-59
2023/12/15 10:31:55;;;;;;;12.43;4.80;;;9.60;99.90;;;;;;5115600;28;20199;-59
2023/12/15 10:34:25;;;;;;;14.45;5.07;;;9.70;99.90;;;;;;5115646;28;20177;-59
2023/12/15 10:36:51;;;;;;;9.45;4.55;;;9.60;99.90;;;;;;5115606;28;20507;-59
2023/12/15 10:39:18;;;;;;;10.52;5.93;;;9.70;99.90;;;;;;5115528;28;20182;-59
2023/12/15 10:41:45;;;;;;;15.25;4.95;;;9.70;99.90;;;;;;5115465;28;20177;-59
2023/12/15 10:44:14;;;;;;;14.65;5.78;;;9.60;99.90;;;;;;5115449;28;20530;-59
2023/12/15 10:46:44;;;;;;;8.32;4.55;;;9.50;99.90;;;;;;5115398;28;20173;-59
2023/12/15 10:49:11;;;;;;;10.80;4.78;;;9.60;99.90;;;;;;5115350;28;20177;-59
2023/12/15 10:51:41;;;;;;;8.73;4.85;;;9.60;99.90;;;;;;5114951;28;20659;-60
2023/12/15 10:54:11;;;;;;;10.43;4.43;;;9.60;99.90;;;;;;5115197;28;20185;-59
2023/12/15 10:56:37;;;;;;;10.27;4.55;;;9.60;99.90;;;;;;5115114;28;20257;-59
2023/12/15 10:59:05;;;;;;;13.43;5.60;;;9.60;99.90;;;;;;5115124;28;20173;-59
2023/12/15 11:01:33;;;;;;;8.18;4.43;;;9.60;99.90;;;;;;5115089;28;20522;-59
2023/12/15 11:03:59;;;;;;;9.88;4.18;;;9.60;99.90;;;;;;5114987;28;20183;-59
2023/12/15 11:06:31;;;;;;;9.60;4.60;;;9.70;99.90;;;;;;5115462;28;20610;-59
2023/12/15 11:09:07;;;;;;;9.93;4.32;;;9.70;99.90;;;;;;5114960;28;20172;-60
2023/12/15 11:11:33;;;;;;;12.10;4.28;;;9.70;99.90;;;;;;5114763;28;20201;-60
2023/12/15 11:14:05;;;;;;;13.65;4.22;;;9.60;99.90;;;;;;5114853;28;20185;-60
2023/12/15 11:16:35;;;;;;;8.50;4.13;;;9.80;99.90;;;;;;5114125;28;20630;-59
2023/12/15 11:19:01;;;;;;;8.63;4.13;;;9.70;99.90;;;;;;5114754;28;20169;-60
2023/12/15 11:21:28;;;;;;;10.18;3.90;;;9.70;99.90;;;;;;5114391;28;20246;-59
2023/12/15 11:24:03;;;;;;;11.32;4.10;;;9.70;99.90;;;;;;5114706;28;20514;-60
2023/12/15 11:26:33;;;;;;;11.25;4.05;;;9.80;99.90;;;;;;5114665;28;20165;-59
2023/12/15 11:29:12;;;;;;;10.48;4.28;;;9.80;99.90;;;;;;5114593;28;20193;-59
2023/12/15 11:31:40;;;;;;;10.80;3.83;;;9.90;99.90;;;;;;5114515;28;20189;-61
2023/12/15 11:34:07;;;;;;;10.77;4.10;;;9.90;99.90;;;;;;5114435;28;20181;-59
2023/12/15 11:36:44;;;;;;;12.25;4.28;;;9.90;99.90;;;;;;5114452;28;20173;-59
2023/12/15 11:39:12;;;;;;;10.50;3.45;;;9.90;99.90;;;;;;5114170;28;20560;-59
2023/12/15 11:41:38;;;;;;;9.98;3.92;;;10.00;99.90;;;;;;5114294;28;20196;-59
2023/12/15 11:44:04;;;;;;;12.98;4.80;;;10.00;99.90;;;;;;5114348;28;20568;-59
2023/12/15 11:46:29;;;;;;;12.45;5.13;;;10.10;99.90;;;;;;5114372;28;20173;-59
2023/12/15 11:48:55;;;;;;;11.43;4.30;;;10.10;99.90;;;;;;5114261;28;20701;-59
2023/12/15 11:51:30;;;;;;;12.40;5.22;;;10.20;99.90;;;;;;5114186;28;20235;-59
2023/12/15 11:54:00;;;;;;;15.05;5.15;;;10.30;99.90;;;;;;5114382;28;20167;-59
2023/12/15 11:56:26;;;;;;;10.43;4.28;;;10.40;99.90;;;;;;5114154;28;20193;-59
2023/12/15 11:58:52;;;;;;;10.48;5.38;;;10.40;99.90;;;;;;5114145;28;20173;-59
2023/12/15 12:01:18;;;;;;;15.68;5.90;;;10.40;99.90;;;;;;5114013;28;20187;-59
2023/12/15 12:03:44;;;;;;;12.80;6.13;;;10.40;99.90;;;;;;5114050;28;20644;-59
2023/12/15 12:06:10;;;;;;;16.15;6.32;;;10.40;99.90;;;;;;5114105;28;20165;-59
2023/12/15 12:08:36;;;;;;;10.25;5.30;;;10.40;99.90;;;;;;5114081;28;20177;-60
2023/12/15 12:11:04;;;;;;;10.73;4.80;;;10.40;99.90;;;;;;5113825;28;20205;-60
2023/12/15 12:13:40;;;;;;;11.18;4.75;;;10.30;99.90;;;;;;5113920;28;20226;-60
2023/12/15 12:16:05;;;;;;;10.40;4.47;;;10.30;99.90;;;;;;5113980;28;20161;-59
2023/12/15 12:18:31;;;;;;;12.15;5.05;;;10.30;99.90;;;;;;5114013;28;20184;-60
2023/12/15 12:21:05;;;;;;;12.35;5.40;;;10.30;99.90;;;;;;5113871;28;20584;-60
2023/12/15 12:23:31;;;;;;;7.65;3.85;;;10.30;99.90;;;;;;5114266;28;20225;-60
2023/12/15 12:25:58;;;;;;;11.93;4.53;;;10.30;99.90;;;;;;5113593;28;20657;-60
2023/12/15 12:28:47;;;;;;;10.63;4.30;;;10.30;99.90;;;;;;5113549;28;20657;-59
2023/12/15 12:31:15;;;;;;;11.80;4.57;;;10.30;99.90;;;;;;5118185;28;20549;-60
2023/12/15 12:33:40;;;;;;;12.95;4.43;;;10.30;99.90;;;;;;5117939;28;20177;-59
2023/12/15 12:36:08;;;;;;;11.98;4.40;;;10.30;99.90;;;;;;5117970;28;20171;-59